Time;durP1;ratioP1;P1;durP2;ratioP2;P2;SDS_P1;SDS_P2;PMS_P1;PMS_P2;Temp;Humidity;BMP_temperature;BMP_pressure;BME280_temperature;BME280_humidity;BME280_pressure;Samples;Min_cycle;Max_cycle;Signal;HPM_P1;HPM_P2
2023/04/03 00:00:57;;;;;;;;;;;;;;;5.59;52.51;101804.19;4935069;28;6776;-83
2023/04/03 00:03:23;;;;;;;;;;;;;;;5.57;53.34;101815.91;4954388;28;6970;-83
2023/04/03 00:05:49;;;;;;;;;;;;;;;5.54;53.44;101800.38;4949564;28;6808;-83
2023/04/03 00:08:15;;;;;;;;;;;;;;;5.55;53.01;101804.69;4936121;28;8509;-83
2023/04/03 00:10:41;;;;;;;;;;;;;;;5.55;53.50;101804.69;4938472;28;10486;-83
2023/04/03 00:13:09;;;;;;;;;;;;;;;5.55;53.38;101804.69;4918175;28;8579;-83
2023/04/03 00:15:36;;;;;;;;;;;;;;;5.56;53.45;101803.94;4953443;28;6792;-83
2023/04/03 00:18:04;;;;;;;;;;;;;;;5.54;53.61;101808.00;4955498;28;6812;-83
2023/04/03 00:20:30;;;;;;;;;;;;;;;5.53;53.18;101811.28;4951448;28;8513;-83
2023/04/03 00:22:56;;;;;;;;;;;;;;;5.51;53.50;101807.72;4941749;28;8412;-83
2023/04/03 00:25:22;;;;;;;;;;;;;;;5.50;53.45;101805.91;4939409;28;8241;-83
2023/04/03 00:27:48;;;;;;;;;;;;;;;5.49;53.49;101815.22;4956268;28;8562;-83
2023/04/03 00:30:18;;;;;;;;;;;;;;;5.48;53.74;101809.97;4935466;28;7116;-83
2023/04/03 00:32:43;;;;;;;;;;;;;;;5.47;53.08;101815.81;4953450;28;8439;-83
2023/04/03 00:35:10;;;;;;;;;;;;;;;5.45;53.41;101814.78;4951377;28;8409;-83
2023/04/03 00:37:36;;;;;;;;;;;;;;;5.41;53.61;101811.06;4967402;28;6950;-83
2023/04/03 00:40:03;;;;;;;;;;;;;;;5.38;53.31;101809.13;4951852;28;8837;-83
2023/04/03 00:42:29;;;;;;;;;;;;;;;5.37;53.10;101807.34;4968457;28;7233;-83
2023/04/03 00:44:55;;;;;;;;;;;;;;;5.35;53.60;101808.84;4960772;28;8534;-83
2023/04/03 00:47:22;;;;;;;;;;;;;;;5.34;53.49;101807.06;4965355;28;6864;-83
2023/04/03 00:49:51;;;;;;;;;;;;;;;5.30;53.36;101807.53;4973214;28;6970;-83
2023/04/03 00:52:23;;;;;;;;;;;;;;;5.27;53.50;101804.72;4954352;28;6796;-83
2023/04/03 00:54:54;;;;;;;;;;;;;;;5.24;53.63;101812.06;4967793;28;6963;-83
2023/04/03 00:57:22;;;;;;;;;;;;;;;5.21;53.55;101811.75;4942523;28;8462;-83
2023/04/03 01:00:01;;;;;;;;;;;;;;;5.21;53.36;101811.75;4958895;28;8672;-83
2023/04/03 01:02:27;;;;;;;;;;;;;;;5.19;53.41;101815.81;4967147;28;8495;-83
2023/04/03 01:04:53;;;;;;;;;;;;;;;5.14;53.32;101810.31;4957926;28;8839;-83
2023/04/03 01:07:29;;;;;;;;;;;;;;;5.11;54.00;101804.94;4968003;28;8445;-83
2023/04/03 01:10:03;;;;;;;;;;;;;;;5.10;53.36;101806.59;4942134;28;8146;-83
2023/04/03 01:12:36;;;;;;;;;;;;;;;5.08;53.91;101805.56;4949071;28;9172;-83
2023/04/03 01:15:06;;;;;;;;;;;;;;;5.04;53.90;101816.19;4971010;28;8506;-83
2023/04/03 01:17:40;;;;;;;;;;;;;;;5.03;53.74;101811.88;4943518;28;7269;-83
2023/04/03 01:20:28;;;;;;;;;;;;;;;5.02;53.37;101821.88;4948257;28;6812;-83
2023/04/03 01:23:08;;;;;;;;;;;;;;;4.97;53.69;101817.28;4948984;28;8613;-83
2023/04/03 01:25:43;;;;;;;;;;;;;;;4.95;54.39;101817.88;4973776;28;7072;-83
2023/04/03 01:28:18;;;;;;;;;;;;;;;4.92;54.45;101822.66;4945759;28;8481;-84
2023/04/03 01:31:24;;;;;;;;;;;;;;;4.90;53.79;101821.63;4948707;28;8392;-84
2023/04/03 01:33:50;;;;;;;;;;;;;;;4.86;53.69;101823.88;4920227;28;8483;-83
2023/04/03 01:36:21;;;;;;;;;;;;;;;4.86;54.22;101822.97;4957105;28;10217;-83
2023/04/03 01:38:48;;;;;;;;;;;;;;;4.82;53.84;101821.78;4955815;28;7263;-84
2023/04/03 01:41:15;;;;;;;;;;;;;;;4.80;53.54;101822.41;4940548;28;8796;-83
2023/04/03 01:43:41;;;;;;;;;;;;;;;4.78;53.74;101817.19;4942838;28;8576;-83
2023/04/03 01:46:07;;;;;;;;;;;;;;;4.73;53.54;101821.84;4958146;28;8423;-84
2023/04/03 01:48:33;;;;;;;;;;;;;;;4.69;54.21;101829.00;4963226;28;7024;-84
2023/04/03 01:50:59;;;;;;;;;;;;;;;4.63;54.11;101820.81;4961198;28;6862;-83
2023/04/03 01:53:24;;;;;;;;;;;;;;;4.56;53.89;101817.69;4959761;28;6804;-83
2023/04/03 01:55:50;;;;;;;;;;;;;;;4.50;53.77;101816.22;4943242;28;8406;-84
2023/04/03 01:58:16;;;;;;;;;;;;;;;4.45;54.07;101820.88;4961523;28;8499;-84
2023/04/03 02:00:42;;;;;;;;;;;;;;;4.41;54.24;101826.38;4964417;28;6941;-84
2023/04/03 02:03:07;;;;;;;;;;;;;;;4.37;53.89;101826.84;4969757;28;8677;-83
2023/04/03 02:05:33;;;;;;;;;;;;;;;4.34;54.15;101826.53;4973776;28;7185;-84
2023/04/03 02:07:59;;;;;;;;;;;;;;;4.31;54.48;101829.69;4929509;28;8383;-83
2023/04/03 02:10:24;;;;;;;;;;;;;;;4.30;53.82;101833.88;4934072;28;8451;-84
2023/04/03 02:12:50;;;;;;;;;;;;;;;4.26;54.51;101834.34;4970476;28;6780;-84
2023/04/03 02:15:16;;;;;;;;;;;;;;;4.24;54.56;101833.25;4961339;28;6948;-83
2023/04/03 02:17:42;;;;;;;;;;;;;;;4.23;54.01;101835.69;4942114;28;6799;-84
2023/04/03 02:20:08;;;;;;;;;;;;;;;4.21;54.25;101829.56;4961877;28;7259;-84
2023/04/03 02:22:35;;;;;;;;;;;;;;;4.20;54.12;101837.91;4946308;28;8437;-84
2023/04/03 02:25:00;;;;;;;;;;;;;;;4.18;54.16;101845.38;4964620;28;6796;-84
2023/04/03 02:27:27;;;;;;;;;;;;;;;4.15;54.55;101837.44;4961972;28;8364;-84
2023/04/03 02:29:52;;;;;;;;;;;;;;;4.13;54.16;101839.88;4955110;28;6808;-84
2023/04/03 02:32:18;;;;;;;;;;;;;;;4.11;54.62;101837.91;4922074;28;8339;-84
2023/04/03 02:34:44;;;;;;;;;;;;;;;4.08;54.12;101838.50;4963169;28;7351;-84
2023/04/03 02:37:09;;;;;;;;;;;;;;;4.06;54.87;101836.59;4951216;28;8630;-84
2023/04/03 02:39:35;;;;;;;;;;;;;;;4.05;54.13;101844.91;4956031;28;8494;-84
2023/04/03 02:42:01;;;;;;;;;;;;;;;4.02;54.58;101846.41;4921606;28;8446;-84
2023/04/03 02:44:26;;;;;;;;;;;;;;;4.00;54.11;101841.94;4947736;28;8430;-83
2023/04/03 02:46:52;;;;;;;;;;;;;;;4.00;55.20;101841.94;4964244;28;6832;-84
2023/04/03 02:49:18;;;;;;;;;;;;;;;4.00;54.93;101840.31;4967728;28;7181;-83
2023/04/03 02:51:51;;;;;;;;;;;;;;;4.03;55.71;101839.72;4950750;28;7244;-86
2023/04/03 02:54:18;;;;;;;;;;;;;;;4.06;54.93;101840.00;4969968;28;6784;-86
2023/04/03 02:56:43;;;;;;;;;;;;;;;4.12;55.54;101837.16;4956483;28;7187;-86
2023/04/03 02:59:09;;;;;;;;;;;;;;;4.16;55.87;101844.34;4963404;28;8304;-83
2023/04/03 03:01:35;;;;;;;;;;;;;;;4.20;55.96;101837.91;4922981;28;8857;-84
2023/04/03 03:04:02;;;;;;;;;;;;;;;4.29;56.60;101844.78;4959123;28;8826;-84
2023/04/03 03:06:27;;;;;;;;;;;;;;;4.33;56.41;101832.38;4932186;28;8854;-84
2023/04/03 03:08:54;;;;;;;;;;;;;;;4.40;56.07;101840.75;4966889;28;6931;-84
2023/04/03 03:11:20;;;;;;;;;;;;;;;4.45;56.43;101839.53;4925399;28;8446;-84
2023/04/03 03:13:46;;;;;;;;;;;;;;;4.52;56.11;101835.03;4950635;28;8602;-83
2023/04/03 03:16:12;;;;;;;;;;;;;;;4.59;56.57;101834.88;4967958;28;6796;-84
2023/04/03 03:18:37;;;;;;;;;;;;;;;4.65;56.30;101839.66;4970703;28;6788;-84
2023/04/03 03:21:03;;;;;;;;;;;;;;;4.70;56.10;101838.41;4968388;28;6788;-84
2023/04/03 03:23:32;;;;;;;;;;;;;;;4.73;56.21;101838.69;4954938;28;8499;-83
2023/04/03 03:26:03;;;;;;;;;;;;;;;4.74;55.43;101837.97;4957591;28;6788;-84
2023/04/03 03:28:29;;;;;;;;;;;;;;;4.76;55.68;101833.03;4969537;28;6808;-83
2023/04/03 03:30:54;;;;;;;;;;;;;;;4.76;55.44;101833.94;4954724;28;8638;-84
2023/04/03 03:33:20;;;;;;;;;;;;;;;4.76;55.60;101836.47;4963872;28;7318;-86
2023/04/03 03:35:46;;;;;;;;;;;;;;;4.77;54.97;101837.34;4942667;28;6776;-85
2023/04/03 03:38:11;;;;;;;;;;;;;;;4.76;55.22;101833.03;4950943;28;8514;-85
2023/04/03 03:40:37;;;;;;;;;;;;;;;4.76;55.67;101831.41;4964534;28;8430;-86
2023/04/03 03:43:03;;;;;;;;;;;;;;;4.74;55.44;101832.91;4930333;28;8501;-86
2023/04/03 03:45:29;;;;;;;;;;;;;;;4.75;55.28;101829.59;4942860;28;6942;-86
2023/04/03 03:47:54;;;;;;;;;;;;;;;4.75;55.25;101837.22;4958495;28;8426;-86
2023/04/03 03:50:20;;;;;;;;;;;;;;;4.76;56.15;101835.56;4968233;28;6784;-86
2023/04/03 03:52:46;;;;;;;;;;;;;;;4.76;55.96;101833.03;4965495;28;6776;-86
2023/04/03 03:55:12;;;;;;;;;;;;;;;4.75;55.37;101834.69;4965826;28;6777;-86
2023/04/03 03:57:38;;;;;;;;;;;;;;;4.75;55.46;101832.16;4967790;28;6934;-85
2023/04/03 04:00:04;;;;;;;;;;;;;;;4.73;55.61;101836.16;4963436;28;8816;-85
2023/04/03 04:02:30;;;;;;;;;;;;;;;4.72;55.56;101839.44;4967414;28;6941;-85
2023/04/03 04:04:56;;;;;;;;;;;;;;;4.72;55.68;101840.38;4957228;28;8505;-85
2023/04/03 04:07:22;;;;;;;;;;;;;;;4.71;55.41;101837.66;4939620;28;8716;-85
2023/04/03 04:09:47;;;;;;;;;;;;;;;4.71;55.32;101836.03;4965390;28;7141;-85
2023/04/03 04:12:13;;;;;;;;;;;;;;;4.72;55.79;101839.44;4966879;28;7120;-85
2023/04/03 04:14:39;;;;;;;;;;;;;;;4.70;55.77;101841.88;4948285;28;6994;-86
2023/04/03 04:17:05;;;;;;;;;;;;;;;4.71;55.86;101853.81;4969291;28;8317;-85
2023/04/03 04:19:30;;;;;;;;;;;;;;;4.69;54.89;101850.25;4970012;28;8426;-85
2023/04/03 04:21:56;;;;;;;;;;;;;;;4.67;55.16;101853.38;4936574;28;8701;-85
2023/04/03 04:24:22;;;;;;;;;;;;;;;4.66;55.27;101859.22;4963938;28;9399;-86
2023/04/03 04:26:48;;;;;;;;;;;;;;;4.63;55.86;101852.19;4959480;28;8791;-85
2023/04/03 04:29:14;;;;;;;;;;;;;;;4.63;55.87;101851.28;4948550;28;8585;-85
2023/04/03 04:31:40;;;;;;;;;;;;;;;4.61;55.74;101851.16;4959024;28;8400;-85
2023/04/03 04:34:05;;;;;;;;;;;;;;;4.61;56.00;101852.78;4970410;28;6848;-85
2023/04/03 04:36:31;;;;;;;;;;;;;;;4.57;55.17;101855.03;4964359;28;8720;-85
2023/04/03 04:38:58;;;;;;;;;;;;;;;4.55;55.37;101861.63;4962958;28;8494;-86
2023/04/03 04:41:24;;;;;;;;;;;;;;;4.50;55.63;101857.75;4957748;28;7170;-85
2023/04/03 04:43:51;;;;;;;;;;;;;;;4.50;55.66;101861.94;4954047;28;8593;-85
2023/04/03 04:46:17;;;;;;;;;;;;;;;4.48;55.73;101863.41;4943688;28;8735;-86
2023/04/03 04:48:44;;;;;;;;;;;;;;;4.47;56.02;101861.63;4935682;28;7170;-86
2023/04/03 04:51:11;;;;;;;;;;;;;;;4.45;55.52;101869.13;4943797;28;8782;-85
2023/04/03 04:53:37;;;;;;;;;;;;;;;4.43;55.63;101868.94;4967453;28;7333;-85
2023/04/03 04:56:03;;;;;;;;;;;;;;;4.42;56.02;101869.72;4962937;28;8582;-85
2023/04/03 04:58:29;;;;;;;;;;;;;;;4.41;55.92;101867.91;4950328;28;8471;-85
2023/04/03 05:01:05;;;;;;;;;;;;;;;4.40;55.73;101871.22;4965498;28;8837;-84
2023/04/03 05:03:31;;;;;;;;;;;;;;;4.39;55.97;101868.50;4957459;28;8531;-84
2023/04/03 05:05:57;;;;;;;;;;;;;;;4.37;56.01;101870.88;4955015;28;6784;-84
2023/04/03 05:08:23;;;;;;;;;;;;;;;4.35;56.35;101867.31;4959168;28;8549;-84
2023/04/03 05:10:49;;;;;;;;;;;;;;;4.37;56.14;101877.63;4950667;28;8487;-85
2023/04/03 05:13:15;;;;;;;;;;;;;;;4.37;55.82;101878.50;4965418;28;8391;-84
2023/04/03 05:15:41;;;;;;;;;;;;;;;4.39;56.68;101886.28;4940556;28;6821;-84
2023/04/03 05:18:07;;;;;;;;;;;;;;;4.38;56.49;101881.94;4952371;28;8514;-84
2023/04/03 05:20:35;;;;;;;;;;;;;;;4.40;56.40;101883.91;4958671;28;8454;-84
2023/04/03 05:23:01;;;;;;;;;;;;;;;4.42;56.67;101889.09;4949532;28;8449;-85
2023/04/03 05:25:26;;;;;;;;;;;;;;;4.43;56.12;101888.34;4968338;28;8622;-85
2023/04/03 05:27:52;;;;;;;;;;;;;;;4.44;56.48;101887.59;4958765;28;8543;-89
2023/04/03 05:30:18;;;;;;;;;;;;;;;4.44;56.32;101895.22;4945636;28;8446;-84
2023/04/03 05:32:44;;;;;;;;;;;;;;;4.46;56.01;101891.22;4951858;28;8523;-85
2023/04/03 05:35:10;;;;;;;;;;;;;;;4.46;56.39;101888.69;4958237;28;8761;-85
2023/04/03 05:37:36;;;;;;;;;;;;;;;4.49;56.62;101891.50;4966336;28;8724;-84
2023/04/03 05:40:04;;;;;;;;;;;;;;;4.50;56.12;101902.56;4964144;28;6824;-85
2023/04/03 05:42:30;;;;;;;;;;;;;;;4.53;56.72;101906.28;4967312;28;6960;-84
2023/04/03 05:44:55;;;;;;;;;;;;;;;4.53;55.77;101908.81;4967783;28;8410;-85
2023/04/03 05:47:22;;;;;;;;;;;;;;;4.56;56.37;101911.66;4968979;28;7114;-85
2023/04/03 05:49:48;;;;;;;;;;;;;;;4.58;56.83;101909.25;4948466;28;8542;-84
2023/04/03 05:52:28;;;;;;;;;;;;;;;4.62;56.75;101918.06;4970504;28;6800;-84
2023/04/03 05:54:55;;;;;;;;;;;;;;;4.63;56.18;101925.84;4946081;28;6983;-85
2023/04/03 05:57:22;;;;;;;;;;;;;;;4.67;56.56;101911.81;4967396;28;6812;-84
2023/04/03 05:59:48;;;;;;;;;;;;;;;4.71;56.88;101924.03;4943891;28;8536;-84
2023/04/03 06:02:20;;;;;;;;;;;;;;;4.74;57.17;101926.88;4952239;28;8540;-84
2023/04/03 06:04:47;;;;;;;;;;;;;;;4.80;56.91;101918.97;4958791;28;7005;-84
2023/04/03 06:07:22;;;;;;;;;;;;;;;4.82;57.13;101923.41;4941097;28;8443;-84
2023/04/03 06:09:51;;;;;;;;;;;;;;;4.88;56.36;101922.22;4936865;28;6998;-84
2023/04/03 06:12:17;;;;;;;;;;;;;;;4.94;57.29;101931.31;4944250;28;7361;-84
2023/04/03 06:14:43;;;;;;;;;;;;;;;4.98;56.59;101928.34;4967046;28;6970;-90
2023/04/03 06:17:09;;;;;;;;;;;;;;;5.04;57.10;101927.13;4972917;28;7238;-91
2023/04/03 06:19:36;;;;;;;;;;;;;;;5.11;56.50;101932.03;4946523;28;7043;-85
2023/04/03 06:22:02;;;;;;;;;;;;;;;5.14;56.71;101935.75;4956724;28;7184;-85
2023/04/03 06:24:28;;;;;;;;;;;;;;;5.22;57.09;101935.59;4956443;28;10057;-85
2023/04/03 06:26:54;;;;;;;;;;;;;;;5.28;57.00;101931.06;4943627;28;8533;-84
2023/04/03 06:29:20;;;;;;;;;;;;;;;5.33;57.08;101929.88;4975490;28;6950;-85
2023/04/03 06:31:47;;;;;;;;;;;;;;;5.39;56.59;101925.34;4935699;28;8528;-84
2023/04/03 06:34:13;;;;;;;;;;;;;;;5.45;56.82;101925.00;4954775;28;7060;-84
2023/04/03 06:36:39;;;;;;;;;;;;;;;5.54;56.50;101927.53;4969301;28;6944;-84
2023/04/03 06:39:06;;;;;;;;;;;;;;;5.65;56.68;101934.50;4951368;28;8518;-85
2023/04/03 06:41:33;;;;;;;;;;;;;;;5.77;57.30;101931.31;4950651;28;8470;-85
2023/04/03 06:43:58;;;;;;;;;;;;;;;5.91;57.15;101933.47;4956447;28;6776;-85
2023/04/03 06:46:26;;;;;;;;;;;;;;;6.05;57.18;101933.84;4950345;28;8467;-85
2023/04/03 06:48:54;;;;;;;;;;;;;;;6.17;57.02;101932.41;4953373;28;6801;-85
2023/04/03 06:51:25;;;;;;;;;;;;;;;6.32;56.89;101934.56;4952079;28;6789;-86
2023/04/03 06:53:54;;;;;;;;;;;;;;;6.42;56.41;101932.09;4965964;28;8486;-85
2023/04/03 06:56:22;;;;;;;;;;;;;;;6.52;56.58;101931.28;4968434;28;6788;-86
2023/04/03 06:58:49;;;;;;;;;;;;;;;6.60;55.84;101931.94;4952480;28;7086;-86
2023/04/03 07:01:19;;;;;;;;;;;;;;;6.63;55.80;101929.66;4951142;28;8286;-86
2023/04/03 07:03:49;;;;;;;;;;;;;;;6.66;55.40;101930.81;4934774;28;8465;-85
2023/04/03 07:06:17;;;;;;;;;;;;;;;6.70;55.82;101941.28;4970538;28;6808;-87
2023/04/03 07:08:43;;;;;;;;;;;;;;;6.72;55.77;101947.44;4938659;28;8746;-85
2023/04/03 07:11:10;;;;;;;;;;;;;;;6.76;55.41;101946.94;4965164;28;7051;-85
2023/04/03 07:13:37;;;;;;;;;;;;;;;6.78;55.40;101953.97;4941927;28;8751;-85
2023/04/03 07:16:04;;;;;;;;;;;;;;;6.82;55.84;101952.56;4956843;28;8489;-86
2023/04/03 07:18:31;;;;;;;;;;;;;;;6.87;55.13;101945.34;4970328;28;7061;-85
2023/04/03 07:20:57;;;;;;;;;;;;;;;6.93;54.86;101944.22;4938512;28;8391;-84
2023/04/03 07:23:24;;;;;;;;;;;;;;;6.99;55.27;101951.50;4950324;28;8715;-80
2023/04/03 07:25:51;;;;;;;;;;;;;;;7.04;54.83;101952.78;4946364;28;9025;-80
2023/04/03 07:28:20;;;;;;;;;;;;;;;7.10;55.45;101955.00;4949885;28;8620;-83
2023/04/03 07:30:53;;;;;;;;;;;;;;;7.21;55.20;101963.56;4947721;28;6800;-87
2023/04/03 07:33:22;;;;;;;;;;;;;;;7.27;54.65;101955.53;4953939;28;8598;-84
2023/04/03 07:35:49;;;;;;;;;;;;;;;7.34;55.09;101955.31;4953633;28;8691;-82
2023/04/03 07:38:15;;;;;;;;;;;;;;;7.38;55.08;101954.81;4951370;28;8723;-83
2023/04/03 07:40:50;;;;;;;;;;;;;;;7.47;54.56;101952.16;4924621;28;8730;-83
2023/04/03 07:43:17;;;;;;;;;;;;;;;7.51;53.75;101954.19;4963735;28;6812;-83
2023/04/03 07:45:43;;;;;;;;;;;;;;;7.57;54.40;101953.81;4951555;28;6812;-84
2023/04/03 07:48:11;;;;;;;;;;;;;;;7.64;54.45;101962.16;4950644;28;8436;-83
2023/04/03 07:50:40;;;;;;;;;;;;;;;7.70;53.89;101951.56;4949479;28;7178;-83
2023/04/03 07:53:05;;;;;;;;;;;;;;;7.80;53.97;101954.91;4952272;28;8492;-82
2023/04/03 07:55:32;;;;;;;;;;;;;;;7.88;53.61;101956.44;4925669;28;8807;-81
2023/04/03 07:57:57;;;;;;;;;;;;;;;7.96;53.93;101959.63;4957045;28;6860;-86
2023/04/03 08:00:24;;;;;;;;;;;;;;;8.02;53.82;101961.03;4969632;28;6963;-85
2023/04/03 08:02:51;;;;;;;;;;;;;;;8.11;53.49;101957.47;4969543;28;7176;-84
2023/04/03 08:05:21;;;;;;;;;;;;;;;8.18;53.80;101957.22;4964361;28;8443;-83
2023/04/03 08:07:48;;;;;;;;;;;;;;;8.24;52.47;101961.94;4932905;28;8424;-84
2023/04/03 08:10:15;;;;;;;;;;;;;;;8.29;52.77;101965.75;4959998;28;8383;-84
2023/04/03 08:12:41;;;;;;;;;;;;;;;8.30;52.50;101960.75;4951377;28;7232;-83
2023/04/03 08:15:09;;;;;;;;;;;;;;;8.36;51.67;101965.47;4940190;28;11205;-83
2023/04/03 08:17:35;;;;;;;;;;;;;;;8.40;51.87;101969.19;4954023;28;7261;-85
2023/04/03 08:20:03;;;;;;;;;;;;;;;8.45;52.10;101968.78;4969765;28;6856;-84
2023/04/03 08:22:29;;;;;;;;;;;;;;;8.53;51.58;101963.44;4945435;28;8647;-86
2023/04/03 08:24:57;;;;;;;;;;;;;;;8.63;50.95;101967.63;4961462;28;7192;-84
2023/04/03 08:27:22;;;;;;;;;;;;;;;8.71;51.39;101964.03;4965683;28;6796;-85
2023/04/03 08:29:48;;;;;;;;;;;;;;;8.82;51.27;101972.59;4962109;28;8757;-84
2023/04/03 08:32:13;;;;;;;;;;;;;;;8.94;50.74;101971.00;4940190;28;8375;-82
2023/04/03 08:34:39;;;;;;;;;;;;;;;9.07;50.91;101974.53;4959205;28;6772;-82
2023/04/03 08:37:05;;;;;;;;;;;;;;;9.15;49.43;101976.94;4939844;28;8527;-80
2023/04/03 08:39:31;;;;;;;;;;;;;;;9.20;49.31;101979.84;4939075;28;8545;-81
2023/04/03 08:42:02;;;;;;;;;;;;;;;9.23;48.70;101969.84;4952826;28;8593;-81
2023/04/03 08:44:59;;;;;;;;;;;;;;;9.31;48.97;101975.56;4934872;28;8524;-80
2023/04/03 08:48:03;;;;;;;;;;;;;;;9.37;48.16;101975.19;4953695;28;8607;-81
2023/04/03 08:50:41;;;;;;;;;;;;;;;9.42;48.09;101978.97;4963098;28;8504;-80
2023/04/03 08:53:22;;;;;;;;;;;;;;;9.49;48.57;101977.78;4955233;28;8595;-82
2023/04/03 08:55:54;;;;;;;;;;;;;;;9.53;48.33;101978.13;4970224;28;6875;-79
2023/04/03 08:58:50;;;;;;;;;;;;;;;9.58;47.79;101981.97;4957253;28;6788;-80
2023/04/03 09:01:40;;;;;;;;;;;;;;;9.67;47.13;101978.31;4942420;28;8526;-80
2023/04/03 09:04:14;;;;;;;;;;;;;;;9.77;47.67;101975.69;4967538;28;7010;-80
2023/04/03 09:06:49;;;;;;;;;;;;;;;9.86;47.08;101970.38;4965577;28;7309;-81
2023/04/03 09:09:40;;;;;;;;;;;;;;;9.96;46.89;101970.28;4968396;28;6975;-81
2023/04/03 09:12:21;;;;;;;;;;;;;;;10.06;46.41;101969.31;4944246;28;8794;-80
2023/04/03 09:15:20;;;;;;;;;;;;;;;10.17;46.72;101957.31;4946631;28;8814;-82
2023/04/03 09:18:05;;;;;;;;;;;;;;;10.29;45.54;101962.47;4964798;28;7272;-81
2023/04/03 09:20:56;;;;;;;;;;;;;;;10.37;45.03;101966.47;4947283;28;7879;-83
2023/04/03 09:23:32;;;;;;;;;;;;;;;10.45;44.76;101963.63;4957961;28;8695;-83
2023/04/03 09:26:08;;;;;;;;;;;;;;;10.49;44.20;101960.50;4958265;28;6781;-80
2023/04/03 09:28:39;;;;;;;;;;;;;;;10.53;43.93;101962.53;4961426;28;7231;-81
2023/04/03 09:31:42;;;;;;;;;;;;;;;10.56;43.78;101962.75;4936031;28;6993;-82
2023/04/03 09:34:37;;;;;;;;;;;;;;;10.56;43.22;101965.31;4956229;28;6973;-81
2023/04/03 09:37:08;;;;;;;;;;;;;;;10.60;43.52;101962.16;4941962;28;7271;-80
2023/04/03 09:39:55;;;;;;;;;;;;;;;10.66;43.19;101947.25;4941297;28;6988;-81
2023/04/03 09:42:25;;;;;;;;;;;;;;;10.73;42.85;101952.84;4963276;28;7113;-80
2023/04/03 09:45:04;;;;;;;;;;;;;;;10.80;42.33;101948.25;4949222;28;6788;-80
2023/04/03 09:47:33;;;;;;;;;;;;;;;10.84;42.94;101946.78;4959845;28;6982;-80
2023/04/03 09:50:14;;;;;;;;;;;;;;;10.90;42.49;101949.78;4938858;28;8542;-81
2023/04/03 09:52:51;;;;;;;;;;;;;;;10.94;41.95;101941.53;4951716;28;8559;-79
2023/04/03 09:55:28;;;;;;;;;;;;;;;10.97;41.61;101952.00;4966778;28;6968;-81
2023/04/03 09:58:01;;;;;;;;;;;;;;;11.03;40.99;101937.84;4953549;28;8761;-81
2023/04/03 10:00:33;;;;;;;;;;;;;;;11.07;40.94;101937.25;4960896;28;6951;-79
2023/04/03 10:03:00;;;;;;;;;;;;;;;11.19;40.75;101938.13;4965250;28;6979;-79
2023/04/03 10:05:39;;;;;;;;;;;;;;;11.31;40.41;101937.22;4967699;28;6927;-81
2023/04/03 10:08:19;;;;;;;;;;;;;;;11.58;39.79;101927.03;4969627;28;6792;-80
2023/04/03 10:11:25;;;;;;;;;;;;;;;12.33;39.06;101936.34;4969385;28;8442;-83
2023/04/03 10:14:00;;;;;;;;;;;;;;;13.47;37.15;101936.63;4970409;28;6801;-81
2023/04/03 10:16:38;;;;;;;;;;;;;;;14.47;36.19;101924.31;4950068;28;7246;-81
2023/04/03 10:19:42;;;;;;;;;;;;;;;15.42;34.91;101924.28;4934886;28;8477;-81
2023/04/03 10:22:41;;;;;;;;;;;;;;;16.32;34.65;101926.22;4970482;28;7182;-81
2023/04/03 10:25:31;;;;;;;;;;;;;;;17.17;33.34;101915.47;4966644;28;7207;-80
2023/04/03 10:28:16;;;;;;;;;;;;;;;17.70;31.15;101915.19;4949182;28;8721;-81
2023/04/03 10:30:59;;;;;;;;;;;;;;;18.17;31.67;101910.25;4962495;28;6852;-81
2023/04/03 10:33:39;;;;;;;;;;;;;;;18.68;31.42;101901.88;4938669;28;7847;-80
2023/04/03 10:36:24;;;;;;;;;;;;;;;19.25;30.53;101900.53;4957960;28;7368;-77
2023/04/03 10:39:41;;;;;;;;;;;;;;;19.71;29.58;101900.38;4943980;28;7992;-78
2023/04/03 10:42:33;;;;;;;;;;;;;;;19.95;29.06;101892.56;4941727;28;8437;-77
2023/04/03 10:45:36;;;;;;;;;;;;;;;20.22;27.76;101896.00;4967266;28;7611;-78
2023/04/03 10:48:45;;;;;;;;;;;;;;;20.22;26.39;101896.88;4956453;28;7755;-78
2023/04/03 10:51:57;;;;;;;;;;;;;;;20.07;27.03;101892.06;4946555;28;8726;-78
2023/04/03 10:54:39;;;;;;;;;;;;;;;20.12;26.82;101885.28;4945135;28;6828;-80
2023/04/03 10:57:10;;;;;;;;;;;;;;;20.16;27.06;101883.69;4951571;28;8771;-78
2023/04/03 10:59:56;;;;;;;;;;;;;;;20.31;26.72;101885.88;4966702;28;8457;-80
2023/04/03 11:02:32;;;;;;;;;;;;;;;20.56;26.73;101880.53;4952281;28;6972;-78
2023/04/03 11:05:34;;;;;;;;;;;;;;;20.82;26.80;101868.31;4959970;28;6820;-82
2023/04/03 11:08:16;;;;;;;;;;;;;;;21.19;25.75;101858.03;4937184;28;6988;-82
2023/04/03 11:10:50;;;;;;;;;;;;;;;21.53;25.72;101863.25;4963203;28;7207;-83
2023/04/03 11:13:40;;;;;;;;;;;;;;;21.72;24.78;101854.22;4931721;28;8565;-83
2023/04/03 11:16:07;;;;;;;;;;;;;;;21.88;25.23;101861.59;4962982;28;8850;-83
2023/04/03 11:18:48;;;;;;;;;;;;;;;22.19;25.31;101854.47;4941791;28;6777;-82
2023/04/03 11:21:43;;;;;;;;;;;;;;;22.35;23.21;101862.63;4952095;28;7031;-83
2023/04/03 11:24:26;;;;;;;;;;;;;;;22.08;23.43;101863.78;4961077;28;8540;-83
2023/04/03 11:26:56;;;;;;;;;;;;;;;21.88;23.81;101863.31;4947614;28;7395;-82
2023/04/03 11:29:33;;;;;;;;;;;;;;;21.84;23.82;101851.03;4940348;28;8453;-82
2023/04/03 11:32:33;;;;;;;;;;;;;;;21.87;23.58;101848.50;4951666;28;7330;-83
2023/04/03 11:35:05;;;;;;;;;;;;;;;21.87;24.22;101848.50;4956430;28;8726;-82
2023/04/03 11:37:40;;;;;;;;;;;;;;;21.74;23.95;101839.47;4956833;28;8676;-83
2023/04/03 11:40:32;;;;;;;;;;;;;;;21.59;23.12;101834.72;4951302;28;8429;-83
2023/04/03 11:43:21;;;;;;;;;;;;;;;21.68;23.78;101832.38;4940404;28;8487;-82
2023/04/03 11:46:03;;;;;;;;;;;;;;;21.80;23.31;101825.69;4966590;28;6958;-82
2023/04/03 11:48:32;;;;;;;;;;;;;;;21.82;23.62;101824.00;4962568;28;7419;-82
2023/04/03 11:51:17;;;;;;;;;;;;;;;21.76;22.65;101825.63;4967906;28;7402;-82
2023/04/03 11:53:44;;;;;;;;;;;;;;;21.73;22.72;101819.44;4964589;28;8441;-82
2023/04/03 11:56:25;;;;;;;;;;;;;;;21.67;22.36;101822.81;4947216;28;8981;-86
2023/04/03 11:59:13;;;;;;;;;;;;;;;21.44;22.97;101820.47;4967901;28;6816;-77
2023/04/03 12:01:57;;;;;;;;;;;;;;;21.50;23.34;101818.00;4946640;28;8422;-82
2023/04/03 12:04:28;;;;;;;;;;;;;;;21.76;23.40;101811.69;4963590;28;6828;-84
2023/04/03 12:07:19;;;;;;;;;;;;;;;21.80;22.63;101820.47;4958035;28;8525;-84
2023/04/03 12:09:45;;;;;;;;;;;;;;;21.71;22.74;101810.72;4939821;28;8503;-84
2023/04/03 12:12:30;;;;;;;;;;;;;;;21.75;23.17;101815.16;4968420;28;7255;-84
2023/04/03 12:15:18;;;;;;;;;;;;;;;21.77;22.17;101805.63;4967440;28;7219;-83
2023/04/03 12:17:44;;;;;;;;;;;;;;;21.75;22.49;101796.88;4964865;28;7098;-84
2023/04/03 12:20:56;;;;;;;;;;;;;;;21.60;22.15;101797.38;4947746;28;9643;-84
2023/04/03 12:23:32;;;;;;;;;;;;;;;21.58;21.88;101796.44;4971723;28;6989;-84
2023/04/03 12:26:25;;;;;;;;;;;;;;;21.65;22.59;101780.13;4957188;28;8560;-83
2023/04/03 12:28:53;;;;;;;;;;;;;;;21.67;22.58;101788.88;4969726;28;6812;-84
2023/04/03 12:31:22;;;;;;;;;;;;;;;21.44;22.58;101785.69;4953047;28;8467;-83
2023/04/03 12:34:38;;;;;;;;;;;;;;;21.41;22.59;101780.41;4955384;28;8423;-83
2023/04/03 12:37:33;;;;;;;;;;;;;;;21.50;23.23;101781.47;4974267;28;8426;-84
2023/04/03 12:40:25;;;;;;;;;;;;;;;21.53;22.58;101787.63;4959342;28;8870;-84
2023/04/03 12:43:35;;;;;;;;;;;;;;;21.42;22.54;101783.03;4947023;28;8741;-84
2023/04/03 12:46:23;;;;;;;;;;;;;;;21.22;22.52;101790.34;4950575;28;8715;-83
2023/04/03 12:48:55;;;;;;;;;;;;;;;21.23;22.67;101787.75;4952477;28;7199;-84
2023/04/03 12:51:39;;;;;;;;;;;;;;;21.31;22.49;101776.66;4971808;28;6800;-83
2023/04/03 12:54:35;;;;;;;;;;;;;;;21.05;22.64;101782.06;4971831;28;6951;-83
2023/04/03 12:57:16;;;;;;;;;;;;;;;20.93;22.59;101783.50;4967261;28;7221;-84
2023/04/03 12:59:45;;;;;;;;;;;;;;;20.95;22.65;101776.59;4969132;28;7311;-83
2023/04/03 13:02:28;;;;;;;;;;;;;;;21.05;23.07;101769.03;4966307;28;8502;-83
2023/04/03 13:04:59;;;;;;;;;;;;;;;21.13;22.34;101770.13;4959901;28;8800;-84
2023/04/03 13:07:40;;;;;;;;;;;;;;;21.31;22.50;101763.63;4953325;28;7705;-83
2023/04/03 13:10:09;;;;;;;;;;;;;;;21.55;22.34;101752.91;4955211;28;8806;-83
2023/04/03 13:12:53;;;;;;;;;;;;;;;21.69;22.50;101763.72;4971366;28;6796;-84
2023/04/03 13:15:27;;;;;;;;;;;;;;;21.76;22.20;101755.19;4951667;28;8736;-83
2023/04/03 13:17:54;;;;;;;;;;;;;;;21.73;21.62;101751.63;4960000;28;7271;-84
2023/04/03 13:20:25;;;;;;;;;;;;;;;21.53;20.77;101751.09;4971598;28;6788;-84